sensor_id;sensor_type;location;lat;lon;timestamp;P1;durP1;ratioP1;P2;durP2;ratioP2
7607;SDS011;3845;48.120;11.534;2022-08-01T00:00:22;1.97;;;1.87;;
7607;SDS011;3845;48.120;11.534;2022-08-01T00:02:47;2.10;;;2.00;;
7607;SDS011;3845;48.120;11.534;2022-08-01T00:05:13;2.10;;;1.90;;
7607;SDS011;3845;48.120;11.534;2022-08-01T00:07:38;2.10;;;1.90;;
7607;SDS011;3845;48.120;11.534;2022-08-01T00:10:04;2.50;;;2.20;;
7607;SDS011;3845;48.120;11.534;2022-08-01T00:12:34;2.40;;;2.10;;
7607;SDS011;3845;48.120;11.534;2022-08-01T00:14:59;2.63;;;2.07;;
7607;SDS011;3845;48.120;11.534;2022-08-01T00:17:25;2.20;;;2.00;;
7607;SDS011;3845;48.120;11.534;2022-08-01T00:19:50;2.10;;;1.90;;
7607;SDS011;3845;48.120;11.534;2022-08-01T00:22:16;2.87;;;2.10;;
7607;SDS011;3845;48.120;11.534;2022-08-01T00:24:41;1.93;;;1.83;;
7607;SDS011;3845;48.120;11.534;2022-08-01T00:27:07;2.23;;;1.97;;
7607;SDS011;3845;48.120;11.534;2022-08-01T00:29:32;2.33;;;2.00;;
7607;SDS011;3845;48.120;11.534;2022-08-01T00:31:58;2.20;;;2.00;;
7607;SDS011;3845;48.120;11.534;2022-08-01T00:34:23;1.87;;;1.77;;
7607;SDS011;3845;48.120;11.534;2022-08-01T00:36:48;2.13;;;1.77;;
7607;SDS011;3845;48.120;11.534;2022-08-01T00:39:14;1.90;;;1.73;;
7607;SDS011;3845;48.120;11.534;2022-08-01T00:41:39;2.70;;;1.70;;
7607;SDS011;3845;48.120;11.534;2022-08-01T00:44:04;1.90;;;1.80;;
7607;SDS011;3845;48.120;11.534;2022-08-01T00:46:30;1.97;;;1.77;;
7607;SDS011;3845;48.120;11.534;2022-08-01T00:48:57;2.73;;;1.60;;
7607;SDS011;3845;48.120;11.534;2022-08-01T00:51:22;2.00;;;1.90;;
7607;SDS011;3845;48.120;11.534;2022-08-01T00:53:48;2.00;;;1.90;;
7607;SDS011;3845;48.120;11.534;2022-08-01T00:56:15;2.57;;;2.00;;
7607;SDS011;3845;48.120;11.534;2022-08-01T00:58:40;2.57;;;2.00;;
7607;SDS011;3845;48.120;11.534;2022-08-01T01:01:05;2.20;;;2.00;;
7607;SDS011;3845;48.120;11.534;2022-08-01T01:03:31;2.20;;;2.00;;
7607;SDS011;3845;48.120;11.534;2022-08-01T01:06:40;2.20;;;2.00;;
7607;SDS011;3845;48.120;11.534;2022-08-01T01:12:36;2.30;;;2.10;;
7607;SDS011;3845;48.120;11.534;2022-08-01T01:15:06;2.43;;;2.20;;
7607;SDS011;3845;48.120;11.534;2022-08-01T01:17:39;2.10;;;2.00;;
7607;SDS011;3845;48.120;11.534;2022-08-01T01:20:07;2.07;;;1.87;;
7607;SDS011;3845;48.120;11.534;2022-08-01T01:22:46;2.00;;;1.80;;
7607;SDS011;3845;48.120;11.534;2022-08-01T01:31:06;2.43;;;2.00;;
7607;SDS011;3845;48.120;11.534;2022-08-01T01:33:34;2.00;;;1.90;;
7607;SDS011;3845;48.120;11.534;2022-08-01T01:36:03;2.20;;;2.00;;
7607;SDS011;3845;48.120;11.534;2022-08-01T01:38:32;2.10;;;1.90;;
7607;SDS011;3845;48.120;11.534;2022-08-01T01:40:59;2.23;;;2.03;;
7607;SDS011;3845;48.120;11.534;2022-08-01T01:43:25;2.10;;;1.80;;
7607;SDS011;3845;48.120;11.534;2022-08-01T01:45:51;2.20;;;1.93;;
7607;SDS011;3845;48.120;11.534;2022-08-01T01:48:17;2.17;;;1.97;;
7607;SDS011;3845;48.120;11.534;2022-08-01T01:50:45;2.10;;;1.93;;
7607;SDS011;3845;48.120;11.534;2022-08-01T01:53:12;1.93;;;1.83;;
7607;SDS011;3845;48.120;11.534;2022-08-01T01:55:39;2.20;;;1.90;;
7607;SDS011;3845;48.120;11.534;2022-08-01T01:58:06;2.17;;;1.97;;
7607;SDS011;3845;48.120;11.534;2022-08-01T02:00:32;3.00;;;2.00;;
7607;SDS011;3845;48.120;11.534;2022-08-01T02:02:58;2.20;;;2.00;;
7607;SDS011;3845;48.120;11.534;2022-08-01T02:05:24;2.10;;;1.90;;
7607;SDS011;3845;48.120;11.534;2022-08-01T02:07:51;3.67;;;2.10;;
7607;SDS011;3845;48.120;11.534;2022-08-01T02:10:17;2.10;;;1.87;;
7607;SDS011;3845;48.120;11.534;2022-08-01T02:12:43;2.53;;;2.10;;
7607;SDS011;3845;48.120;11.534;2022-08-01T02:15:11;2.20;;;2.00;;
7607;SDS011;3845;48.120;11.534;2022-08-01T02:17:39;2.13;;;1.97;;
7607;SDS011;3845;48.120;11.534;2022-08-01T02:20:07;2.17;;;1.97;;
7607;SDS011;3845;48.120;11.534;2022-08-01T02:23:07;3.23;;;2.40;;
7607;SDS011;3845;48.120;11.534;2022-08-01T02:25:48;2.20;;;2.00;;
7607;SDS011;3845;48.120;11.534;2022-08-01T02:30:53;2.27;;;2.00;;
7607;SDS011;3845;48.120;11.534;2022-08-01T02:33:24;2.60;;;2.30;;
7607;SDS011;3845;48.120;11.534;2022-08-01T02:35:57;2.40;;;2.20;;
7607;SDS011;3845;48.120;11.534;2022-08-01T02:38:24;2.37;;;2.17;;
7607;SDS011;3845;48.120;11.534;2022-08-01T02:40:53;2.10;;;1.83;;
7607;SDS011;3845;48.120;11.534;2022-08-01T02:43:22;3.27;;;2.17;;
7607;SDS011;3845;48.120;11.534;2022-08-01T02:45:51;2.20;;;2.00;;
7607;SDS011;3845;48.120;11.534;2022-08-01T02:48:19;4.20;;;3.20;;
7607;SDS011;3845;48.120;11.534;2022-08-01T02:50:46;4.67;;;3.73;;
7607;SDS011;3845;48.120;11.534;2022-08-01T02:53:13;4.10;;;3.70;;
7607;SDS011;3845;48.120;11.534;2022-08-01T02:55:40;2.57;;;2.37;;
7607;SDS011;3845;48.120;11.534;2022-08-01T02:58:06;2.87;;;2.57;;
7607;SDS011;3845;48.120;11.534;2022-08-01T03:00:33;3.00;;;2.20;;
7607;SDS011;3845;48.120;11.534;2022-08-01T03:02:59;4.73;;;2.27;;
7607;SDS011;3845;48.120;11.534;2022-08-01T03:05:26;2.30;;;2.10;;
7607;SDS011;3845;48.120;11.534;2022-08-01T03:07:52;3.87;;;2.23;;
7607;SDS011;3845;48.120;11.534;2022-08-01T03:10:19;2.57;;;2.17;;
7607;SDS011;3845;48.120;11.534;2022-08-01T03:12:45;3.10;;;2.20;;
7607;SDS011;3845;48.120;11.534;2022-08-01T03:15:12;2.40;;;2.20;;
7607;SDS011;3845;48.120;11.534;2022-08-01T03:17:38;3.83;;;2.10;;
7607;SDS011;3845;48.120;11.534;2022-08-01T03:20:06;2.10;;;1.90;;
7607;SDS011;3845;48.120;11.534;2022-08-01T03:22:33;2.97;;;1.90;;
7607;SDS011;3845;48.120;11.534;2022-08-01T03:24:59;2.40;;;2.20;;
7607;SDS011;3845;48.120;11.534;2022-08-01T03:27:25;3.87;;;2.13;;
7607;SDS011;3845;48.120;11.534;2022-08-01T03:29:51;3.33;;;2.47;;
7607;SDS011;3845;48.120;11.534;2022-08-01T03:32:17;2.57;;;2.20;;
7607;SDS011;3845;48.120;11.534;2022-08-01T03:34:43;3.40;;;2.50;;
7607;SDS011;3845;48.120;11.534;2022-08-01T03:37:11;3.30;;;2.40;;
7607;SDS011;3845;48.120;11.534;2022-08-01T03:39:40;3.23;;;2.93;;
7607;SDS011;3845;48.120;11.534;2022-08-01T03:42:12;3.33;;;2.97;;
7607;SDS011;3845;48.120;11.534;2022-08-01T03:44:40;4.70;;;3.23;;
7607;SDS011;3845;48.120;11.534;2022-08-01T03:47:07;3.50;;;3.20;;
7607;SDS011;3845;48.120;11.534;2022-08-01T03:49:41;3.90;;;3.50;;
7607;SDS011;3845;48.120;11.534;2022-08-01T03:52:08;7.57;;;6.03;;
7607;SDS011;3845;48.120;11.534;2022-08-01T03:54:38;5.87;;;4.63;;
7607;SDS011;3845;48.120;11.534;2022-08-01T03:57:06;4.00;;;3.60;;
7607;SDS011;3845;48.120;11.534;2022-08-01T03:59:32;3.90;;;3.10;;
7607;SDS011;3845;48.120;11.534;2022-08-01T04:01:59;4.40;;;3.67;;
7607;SDS011;3845;48.120;11.534;2022-08-01T04:04:24;3.50;;;3.20;;
7607;SDS011;3845;48.120;11.534;2022-08-01T04:06:50;4.10;;;3.70;;
7607;SDS011;3845;48.120;11.534;2022-08-01T04:09:18;5.70;;;3.07;;
7607;SDS011;3845;48.120;11.534;2022-08-01T04:11:44;3.03;;;2.77;;
7607;SDS011;3845;48.120;11.534;2022-08-01T04:14:09;3.33;;;2.80;;
7607;SDS011;3845;48.120;11.534;2022-08-01T04:16:35;3.07;;;2.77;;
7607;SDS011;3845;48.120;11.534;2022-08-01T04:19:00;2.93;;;2.60;;
7607;SDS011;3845;48.120;11.534;2022-08-01T04:21:26;3.70;;;2.40;;
7607;SDS011;3845;48.120;11.534;2022-08-01T04:23:56;2.87;;;2.57;;
7607;SDS011;3845;48.120;11.534;2022-08-01T04:26:24;2.60;;;2.40;;
7607;SDS011;3845;48.120;11.534;2022-08-01T04:28:50;4.27;;;2.93;;
7607;SDS011;3845;48.120;11.534;2022-08-01T04:31:17;3.60;;;2.70;;
7607;SDS011;3845;48.120;11.534;2022-08-01T04:33:43;3.03;;;2.80;;
7607;SDS011;3845;48.120;11.534;2022-08-01T04:36:11;3.90;;;2.90;;
7607;SDS011;3845;48.120;11.534;2022-08-01T04:38:37;3.03;;;2.40;;
7607;SDS011;3845;48.120;11.534;2022-08-01T04:41:04;3.20;;;2.77;;
7607;SDS011;3845;48.120;11.534;2022-08-01T04:43:32;4.50;;;2.80;;
7607;SDS011;3845;48.120;11.534;2022-08-01T04:45:57;3.33;;;2.90;;
7607;SDS011;3845;48.120;11.534;2022-08-01T04:48:23;3.03;;;2.73;;
7607;SDS011;3845;48.120;11.534;2022-08-01T04:50:50;3.40;;;3.07;;
7607;SDS011;3845;48.120;11.534;2022-08-01T04:53:15;3.80;;;3.40;;
7607;SDS011;3845;48.120;11.534;2022-08-01T04:55:45;3.13;;;2.83;;
7607;SDS011;3845;48.120;11.534;2022-08-01T04:58:11;4.00;;;3.00;;
7607;SDS011;3845;48.120;11.534;2022-08-01T05:00:36;3.70;;;2.93;;
7607;SDS011;3845;48.120;11.534;2022-08-01T05:03:02;3.10;;;2.80;;
7607;SDS011;3845;48.120;11.534;2022-08-01T05:05:27;3.03;;;2.73;;
7607;SDS011;3845;48.120;11.534;2022-08-01T05:07:53;2.93;;;2.60;;
7607;SDS011;3845;48.120;11.534;2022-08-01T05:10:18;3.20;;;2.90;;
7607;SDS011;3845;48.120;11.534;2022-08-01T05:12:43;6.13;;;5.20;;
7607;SDS011;3845;48.120;11.534;2022-08-01T05:15:09;6.57;;;5.47;;
7607;SDS011;3845;48.120;11.534;2022-08-01T05:17:34;5.10;;;4.00;;
7607;SDS011;3845;48.120;11.534;2022-08-01T05:20:00;5.43;;;3.43;;
7607;SDS011;3845;48.120;11.534;2022-08-01T05:22:26;3.83;;;3.43;;
7607;SDS011;3845;48.120;11.534;2022-08-01T05:24:51;3.67;;;3.37;;
7607;SDS011;3845;48.120;11.534;2022-08-01T05:27:18;4.70;;;3.50;;
7607;SDS011;3845;48.120;11.534;2022-08-01T05:29:43;4.30;;;3.07;;
7607;SDS011;3845;48.120;11.534;2022-08-01T05:32:08;3.67;;;2.83;;
7607;SDS011;3845;48.120;11.534;2022-08-01T05:34:34;3.20;;;2.60;;
7607;SDS011;3845;48.120;11.534;2022-08-01T05:37:00;3.10;;;2.80;;
7607;SDS011;3845;48.120;11.534;2022-08-01T05:39:25;4.50;;;3.60;;
7607;SDS011;3845;48.120;11.534;2022-08-01T05:41:50;3.30;;;2.97;;
7607;SDS011;3845;48.120;11.534;2022-08-01T05:44:16;3.30;;;2.93;;
7607;SDS011;3845;48.120;11.534;2022-08-01T05:46:41;4.50;;;3.57;;
7607;SDS011;3845;48.120;11.534;2022-08-01T05:49:06;3.50;;;3.03;;
7607;SDS011;3845;48.120;11.534;2022-08-01T05:51:32;6.10;;;2.90;;
7607;SDS011;3845;48.120;11.534;2022-08-01T05:53:58;6.63;;;4.30;;
7607;SDS011;3845;48.120;11.534;2022-08-01T05:56:23;4.60;;;3.73;;
7607;SDS011;3845;48.120;11.534;2022-08-01T05:58:49;3.53;;;3.20;;
7607;SDS011;3845;48.120;11.534;2022-08-01T06:01:15;3.50;;;2.63;;
7607;SDS011;3845;48.120;11.534;2022-08-01T06:03:41;2.80;;;2.60;;
7607;SDS011;3845;48.120;11.534;2022-08-01T06:06:07;3.63;;;2.93;;
7607;SDS011;3845;48.120;11.534;2022-08-01T06:08:32;2.90;;;2.63;;
7607;SDS011;3845;48.120;11.534;2022-08-01T06:10:57;5.17;;;3.03;;
7607;SDS011;3845;48.120;11.534;2022-08-01T06:13:23;4.90;;;4.40;;
7607;SDS011;3845;48.120;11.534;2022-08-01T06:15:48;5.90;;;5.30;;
7607;SDS011;3845;48.120;11.534;2022-08-01T06:18:14;4.50;;;4.00;;
7607;SDS011;3845;48.120;11.534;2022-08-01T06:20:40;4.63;;;3.97;;
7607;SDS011;3845;48.120;11.534;2022-08-01T06:23:05;4.40;;;3.97;;
7607;SDS011;3845;48.120;11.534;2022-08-01T06:25:31;3.27;;;2.97;;
7607;SDS011;3845;48.120;11.534;2022-08-01T06:27:56;2.80;;;2.60;;
7607;SDS011;3845;48.120;11.534;2022-08-01T06:30:22;3.87;;;2.67;;
7607;SDS011;3845;48.120;11.534;2022-08-01T06:32:47;3.20;;;2.70;;
7607;SDS011;3845;48.120;11.534;2022-08-01T06:35:13;2.87;;;2.57;;
7607;SDS011;3845;48.120;11.534;2022-08-01T06:37:38;4.67;;;3.10;;
7607;SDS011;3845;48.120;11.534;2022-08-01T06:40:04;4.40;;;3.30;;
7607;SDS011;3845;48.120;11.534;2022-08-01T06:42:31;3.80;;;3.40;;
7607;SDS011;3845;48.120;11.534;2022-08-01T06:45:01;3.08;;;2.58;;
7607;SDS011;3845;48.120;11.534;2022-08-01T06:47:27;3.85;;;2.70;;
7607;SDS011;3845;48.120;11.534;2022-08-01T06:49:52;2.40;;;2.20;;
7607;SDS011;3845;48.120;11.534;2022-08-01T06:52:18;3.13;;;2.20;;
7607;SDS011;3845;48.120;11.534;2022-08-01T06:54:43;2.58;;;2.15;;
7607;SDS011;3845;48.120;11.534;2022-08-01T06:57:08;2.47;;;2.28;;
7607;SDS011;3845;48.120;11.534;2022-08-01T06:59:34;5.57;;;5.07;;
7607;SDS011;3845;48.120;11.534;2022-08-01T07:01:59;4.60;;;4.18;;
7607;SDS011;3845;48.120;11.534;2022-08-01T07:04:26;3.80;;;3.50;;
7607;SDS011;3845;48.120;11.534;2022-08-01T07:06:51;2.50;;;2.20;;
7607;SDS011;3845;48.120;11.534;2022-08-01T07:09:17;2.40;;;2.20;;
7607;SDS011;3845;48.120;11.534;2022-08-01T07:11:42;4.68;;;2.22;;
7607;SDS011;3845;48.120;11.534;2022-08-01T07:14:07;3.33;;;3.05;;
7607;SDS011;3845;48.120;11.534;2022-08-01T07:16:33;3.10;;;2.90;;
7607;SDS011;3845;48.120;11.534;2022-08-01T07:18:58;2.78;;;2.58;;
7607;SDS011;3845;48.120;11.534;2022-08-01T07:21:24;2.97;;;2.70;;
7607;SDS011;3845;48.120;11.534;2022-08-01T07:23:49;2.78;;;2.58;;
7607;SDS011;3845;48.120;11.534;2022-08-01T07:26:14;5.30;;;2.88;;
7607;SDS011;3845;48.120;11.534;2022-08-01T07:28:39;3.30;;;2.25;;
7607;SDS011;3845;48.120;11.534;2022-08-01T07:31:05;2.50;;;2.30;;
7607;SDS011;3845;48.120;11.534;2022-08-01T07:33:30;2.85;;;2.50;;
7607;SDS011;3845;48.120;11.534;2022-08-01T07:35:55;3.03;;;2.47;;
7607;SDS011;3845;48.120;11.534;2022-08-01T07:38:21;2.67;;;2.47;;
7607;SDS011;3845;48.120;11.534;2022-08-01T07:40:46;5.13;;;2.60;;
7607;SDS011;3845;48.120;11.534;2022-08-01T07:43:11;3.27;;;2.40;;
7607;SDS011;3845;48.120;11.534;2022-08-01T07:45:37;4.80;;;2.50;;
7607;SDS011;3845;48.120;11.534;2022-08-01T07:48:05;3.00;;;2.70;;
7607;SDS011;3845;48.120;11.534;2022-08-01T07:50:31;5.30;;;3.17;;
7607;SDS011;3845;48.120;11.534;2022-08-01T07:52:57;3.30;;;3.00;;
7607;SDS011;3845;48.120;11.534;2022-08-01T07:55:22;3.00;;;2.67;;
7607;SDS011;3845;48.120;11.534;2022-08-01T07:57:48;4.23;;;2.67;;
7607;SDS011;3845;48.120;11.534;2022-08-01T08:00:13;3.70;;;3.40;;
7607;SDS011;3845;48.120;11.534;2022-08-01T08:02:38;4.70;;;3.50;;
7607;SDS011;3845;48.120;11.534;2022-08-01T08:05:04;5.10;;;4.70;;
7607;SDS011;3845;48.120;11.534;2022-08-01T08:07:31;6.47;;;5.20;;
7607;SDS011;3845;48.120;11.534;2022-08-01T08:09:56;5.70;;;4.77;;
7607;SDS011;3845;48.120;11.534;2022-08-01T08:12:22;4.43;;;3.97;;
7607;SDS011;3845;48.120;11.534;2022-08-01T08:14:47;4.80;;;4.40;;
7607;SDS011;3845;48.120;11.534;2022-08-01T08:17:13;5.03;;;4.50;;
7607;SDS011;3845;48.120;11.534;2022-08-01T08:19:38;3.90;;;3.60;;
7607;SDS011;3845;48.120;11.534;2022-08-01T08:22:05;3.80;;;3.07;;
7607;SDS011;3845;48.120;11.534;2022-08-01T08:24:31;3.00;;;2.70;;
7607;SDS011;3845;48.120;11.534;2022-08-01T08:26:58;2.97;;;2.60;;
7607;SDS011;3845;48.120;11.534;2022-08-01T08:29:24;3.20;;;2.90;;
7607;SDS011;3845;48.120;11.534;2022-08-01T08:31:50;4.40;;;3.43;;
7607;SDS011;3845;48.120;11.534;2022-08-01T08:34:17;3.57;;;3.27;;
7607;SDS011;3845;48.120;11.534;2022-08-01T08:36:42;3.93;;;3.50;;
7607;SDS011;3845;48.120;11.534;2022-08-01T08:39:08;3.23;;;2.93;;
7607;SDS011;3845;48.120;11.534;2022-08-01T08:41:33;3.00;;;2.70;;
7607;SDS011;3845;48.120;11.534;2022-08-01T08:44:00;3.00;;;2.70;;
7607;SDS011;3845;48.120;11.534;2022-08-01T08:46:26;4.17;;;3.00;;
7607;SDS011;3845;48.120;11.534;2022-08-01T08:48:52;3.63;;;3.00;;
7607;SDS011;3845;48.120;11.534;2022-08-01T08:51:18;3.60;;;2.60;;
7607;SDS011;3845;48.120;11.534;2022-08-01T08:53:44;4.63;;;2.73;;
7607;SDS011;3845;48.120;11.534;2022-08-01T08:56:11;3.50;;;3.20;;
7607;SDS011;3845;48.120;11.534;2022-08-01T08:58:38;3.87;;;2.83;;
7607;SDS011;3845;48.120;11.534;2022-08-01T09:01:07;4.53;;;2.90;;
7607;SDS011;3845;48.120;11.534;2022-08-01T09:03:35;3.13;;;2.77;;
7607;SDS011;3845;48.120;11.534;2022-08-01T09:06:01;4.13;;;3.37;;
7607;SDS011;3845;48.120;11.534;2022-08-01T09:08:26;4.60;;;3.27;;
7607;SDS011;3845;48.120;11.534;2022-08-01T09:10:52;3.20;;;2.90;;
7607;SDS011;3845;48.120;11.534;2022-08-01T09:13:18;2.97;;;2.67;;
7607;SDS011;3845;48.120;11.534;2022-08-01T09:15:44;3.57;;;2.47;;
7607;SDS011;3845;48.120;11.534;2022-08-01T09:21:12;7.50;;;5.67;;
7607;SDS011;3845;48.120;11.534;2022-08-01T09:23:52;7.20;;;6.43;;
7607;SDS011;3845;48.120;11.534;2022-08-01T09:26:19;3.57;;;3.27;;
7607;SDS011;3845;48.120;11.534;2022-08-01T09:28:47;3.83;;;2.83;;
7607;SDS011;3845;48.120;11.534;2022-08-01T09:31:13;2.80;;;2.50;;
7607;SDS011;3845;48.120;11.534;2022-08-01T09:33:54;5.07;;;3.80;;
7607;SDS011;3845;48.120;11.534;2022-08-01T09:36:26;3.50;;;3.10;;
7607;SDS011;3845;48.120;11.534;2022-08-01T09:38:53;2.80;;;2.60;;
7607;SDS011;3845;48.120;11.534;2022-08-01T09:41:29;2.83;;;2.40;;
7607;SDS011;3845;48.120;11.534;2022-08-01T09:43:56;2.90;;;2.40;;
7607;SDS011;3845;48.120;11.534;2022-08-01T09:46:22;2.57;;;2.37;;
7607;SDS011;3845;48.120;11.534;2022-08-01T09:49:00;2.70;;;2.33;;
7607;SDS011;3845;48.120;11.534;2022-08-01T09:51:34;2.80;;;2.30;;
7607;SDS011;3845;48.120;11.534;2022-08-01T09:54:00;2.50;;;2.10;;
7607;SDS011;3845;48.120;11.534;2022-08-01T09:56:37;5.40;;;3.10;;
7607;SDS011;3845;48.120;11.534;2022-08-01T09:59:04;5.83;;;2.97;;
7607;SDS011;3845;48.120;11.534;2022-08-01T10:01:47;3.90;;;2.60;;
7607;SDS011;3845;48.120;11.534;2022-08-01T10:04:14;2.90;;;2.60;;
7607;SDS011;3845;48.120;11.534;2022-08-01T10:06:42;3.20;;;2.90;;
7607;SDS011;3845;48.120;11.534;2022-08-01T10:09:09;3.20;;;2.90;;
7607;SDS011;3845;48.120;11.534;2022-08-01T10:11:36;2.57;;;2.37;;
7607;SDS011;3845;48.120;11.534;2022-08-01T10:14:04;2.93;;;2.37;;
7607;SDS011;3845;48.120;11.534;2022-08-01T10:16:30;3.17;;;2.87;;
7607;SDS011;3845;48.120;11.534;2022-08-01T10:18:57;7.17;;;6.37;;
7607;SDS011;3845;48.120;11.534;2022-08-01T10:21:23;8.00;;;7.20;;
7607;SDS011;3845;48.120;11.534;2022-08-01T10:23:51;5.20;;;3.30;;
7607;SDS011;3845;48.120;11.534;2022-08-01T10:26:17;2.90;;;2.60;;
7607;SDS011;3845;48.120;11.534;2022-08-01T10:28:43;2.67;;;2.43;;
7607;SDS011;3845;48.120;11.534;2022-08-01T10:31:10;3.13;;;2.20;;
7607;SDS011;3845;48.120;11.534;2022-08-01T10:33:36;2.97;;;2.10;;
7607;SDS011;3845;48.120;11.534;2022-08-01T10:36:04;4.00;;;2.00;;
7607;SDS011;3845;48.120;11.534;2022-08-01T10:38:30;2.00;;;1.83;;
7607;SDS011;3845;48.120;11.534;2022-08-01T10:40:55;2.60;;;2.13;;
7607;SDS011;3845;48.120;11.534;2022-08-01T10:43:22;2.40;;;2.10;;
7607;SDS011;3845;48.120;11.534;2022-08-01T10:45:47;2.37;;;2.10;;
7607;SDS011;3845;48.120;11.534;2022-08-01T10:48:24;4.03;;;2.13;;
7607;SDS011;3845;48.120;11.534;2022-08-01T10:50:55;2.37;;;2.03;;
7607;SDS011;3845;48.120;11.534;2022-08-01T10:53:24;3.60;;;2.80;;
7607;SDS011;3845;48.120;11.534;2022-08-01T10:58:24;3.27;;;2.47;;
7607;SDS011;3845;48.120;11.534;2022-08-01T11:03:41;2.63;;;2.10;;
7607;SDS011;3845;48.120;11.534;2022-08-01T11:06:14;2.57;;;2.23;;
7607;SDS011;3845;48.120;11.534;2022-08-01T11:08:41;4.30;;;2.50;;
7607;SDS011;3845;48.120;11.534;2022-08-01T11:11:08;2.93;;;2.30;;
7607;SDS011;3845;48.120;11.534;2022-08-01T11:16:35;2.83;;;2.13;;
7607;SDS011;3845;48.120;11.534;2022-08-01T11:19:02;2.50;;;2.30;;
7607;SDS011;3845;48.120;11.534;2022-08-01T11:27:19;3.23;;;2.50;;
7607;SDS011;3845;48.120;11.534;2022-08-01T11:32:48;7.03;;;5.00;;
7607;SDS011;3845;48.120;11.534;2022-08-01T11:35:15;3.37;;;3.07;;
7607;SDS011;3845;48.120;11.534;2022-08-01T11:37:40;3.73;;;2.37;;
7607;SDS011;3845;48.120;11.534;2022-08-01T11:40:22;2.20;;;2.00;;
7607;SDS011;3845;48.120;11.534;2022-08-01T11:42:49;2.30;;;2.00;;
7607;SDS011;3845;48.120;11.534;2022-08-01T11:45:16;4.43;;;2.63;;
7607;SDS011;3845;48.120;11.534;2022-08-01T11:52:57;4.90;;;2.40;;
7607;SDS011;3845;48.120;11.534;2022-08-01T11:55:26;3.87;;;2.03;;
7607;SDS011;3845;48.120;11.534;2022-08-01T11:58:26;2.00;;;1.80;;
7607;SDS011;3845;48.120;11.534;2022-08-01T12:00:54;3.00;;;2.17;;
7607;SDS011;3845;48.120;11.534;2022-08-01T12:03:28;3.67;;;3.33;;
7607;SDS011;3845;48.120;11.534;2022-08-01T12:05:54;3.27;;;2.70;;
7607;SDS011;3845;48.120;11.534;2022-08-01T12:08:30;2.20;;;2.00;;
7607;SDS011;3845;48.120;11.534;2022-08-01T12:11:02;2.47;;;1.80;;
7607;SDS011;3845;48.120;11.534;2022-08-01T12:13:37;2.13;;;1.70;;
7607;SDS011;3845;48.120;11.534;2022-08-01T12:16:07;2.27;;;1.70;;
7607;SDS011;3845;48.120;11.534;2022-08-01T12:18:40;2.20;;;1.70;;
7607;SDS011;3845;48.120;11.534;2022-08-01T12:21:06;2.57;;;1.80;;
7607;SDS011;3845;48.120;11.534;2022-08-01T12:23:31;2.47;;;1.60;;
7607;SDS011;3845;48.120;11.534;2022-08-01T12:25:56;2.13;;;1.60;;
7607;SDS011;3845;48.120;11.534;2022-08-01T12:28:21;3.93;;;3.50;;
7607;SDS011;3845;48.120;11.534;2022-08-01T12:30:48;2.83;;;2.50;;
7607;SDS011;3845;48.120;11.534;2022-08-01T12:33:16;3.03;;;1.73;;
7607;SDS011;3845;48.120;11.534;2022-08-01T12:35:43;2.67;;;1.43;;
7607;SDS011;3845;48.120;11.534;2022-08-01T12:38:15;2.60;;;1.30;;
7607;SDS011;3845;48.120;11.534;2022-08-01T12:40:52;1.90;;;1.50;;
7607;SDS011;3845;48.120;11.534;2022-08-01T12:43:18;2.87;;;1.50;;
7607;SDS011;3845;48.120;11.534;2022-08-01T12:45:45;3.30;;;1.60;;
7607;SDS011;3845;48.120;11.534;2022-08-01T12:48:13;2.03;;;1.53;;
7607;SDS011;3845;48.120;11.534;2022-08-01T12:50:39;1.40;;;1.30;;
7607;SDS011;3845;48.120;11.534;2022-08-01T12:53:10;1.60;;;1.50;;
7607;SDS011;3845;48.120;11.534;2022-08-01T12:55:46;1.40;;;1.30;;
7607;SDS011;3845;48.120;11.534;2022-08-01T12:58:15;1.90;;;1.50;;
7607;SDS011;3845;48.120;11.534;2022-08-01T13:00:43;2.40;;;1.37;;
7607;SDS011;3845;48.120;11.534;2022-08-01T13:03:10;1.87;;;1.60;;
7607;SDS011;3845;48.120;11.534;2022-08-01T13:08:11;2.07;;;1.43;;
7607;SDS011;3845;48.120;11.534;2022-08-01T13:10:38;2.20;;;1.70;;
7607;SDS011;3845;48.120;11.534;2022-08-01T13:13:03;2.40;;;2.13;;
7607;SDS011;3845;48.120;11.534;2022-08-01T13:15:30;1.83;;;1.70;;
7607;SDS011;3845;48.120;11.534;2022-08-01T13:17:57;1.70;;;1.60;;
7607;SDS011;3845;48.120;11.534;2022-08-01T13:20:24;2.60;;;1.70;;
7607;SDS011;3845;48.120;11.534;2022-08-01T13:22:53;1.87;;;1.67;;
7607;SDS011;3845;48.120;11.534;2022-08-01T13:25:19;2.57;;;1.70;;
7607;SDS011;3845;48.120;11.534;2022-08-01T13:27:45;3.03;;;1.77;;
7607;SDS011;3845;48.120;11.534;2022-08-01T13:30:12;2.30;;;1.50;;
7607;SDS011;3845;48.120;11.534;2022-08-01T13:32:42;2.20;;;1.60;;
7607;SDS011;3845;48.120;11.534;2022-08-01T13:35:10;4.47;;;1.80;;
7607;SDS011;3845;48.120;11.534;2022-08-01T13:37:38;2.57;;;1.60;;
7607;SDS011;3845;48.120;11.534;2022-08-01T13:40:05;3.93;;;2.10;;
7607;SDS011;3845;48.120;11.534;2022-08-01T13:42:32;4.30;;;1.70;;
7607;SDS011;3845;48.120;11.534;2022-08-01T13:44:57;3.20;;;1.60;;
7607;SDS011;3845;48.120;11.534;2022-08-01T13:47:22;2.03;;;1.70;;
7607;SDS011;3845;48.120;11.534;2022-08-01T13:49:48;3.70;;;1.80;;
7607;SDS011;3845;48.120;11.534;2022-08-01T13:52:13;3.07;;;1.80;;
7607;SDS011;3845;48.120;11.534;2022-08-01T13:54:38;3.27;;;2.20;;
7607;SDS011;3845;48.120;11.534;2022-08-01T13:57:04;2.83;;;1.70;;
7607;SDS011;3845;48.120;11.534;2022-08-01T13:59:29;3.03;;;1.43;;
7607;SDS011;3845;48.120;11.534;2022-08-01T14:01:54;1.93;;;1.57;;
7607;SDS011;3845;48.120;11.534;2022-08-01T14:04:20;2.10;;;1.40;;
7607;SDS011;3845;48.120;11.534;2022-08-01T14:06:46;1.83;;;1.63;;
7607;SDS011;3845;48.120;11.534;2022-08-01T14:09:11;2.00;;;1.40;;
7607;SDS011;3845;48.120;11.534;2022-08-01T14:11:37;2.97;;;2.67;;
7607;SDS011;3845;48.120;11.534;2022-08-01T14:14:03;5.10;;;2.13;;
7607;SDS011;3845;48.120;11.534;2022-08-01T14:16:28;2.13;;;1.93;;
7607;SDS011;3845;48.120;11.534;2022-08-01T14:18:54;1.90;;;1.60;;
7607;SDS011;3845;48.120;11.534;2022-08-01T14:21:19;1.93;;;1.57;;
7607;SDS011;3845;48.120;11.534;2022-08-01T14:23:45;1.60;;;1.40;;
7607;SDS011;3845;48.120;11.534;2022-08-01T14:26:10;2.80;;;1.50;;
7607;SDS011;3845;48.120;11.534;2022-08-01T14:28:36;4.07;;;1.90;;
7607;SDS011;3845;48.120;11.534;2022-08-01T14:31:03;5.60;;;2.30;;
7607;SDS011;3845;48.120;11.534;2022-08-01T14:33:30;3.07;;;2.27;;
7607;SDS011;3845;48.120;11.534;2022-08-01T14:35:56;2.60;;;2.10;;
7607;SDS011;3845;48.120;11.534;2022-08-01T14:38:21;2.63;;;1.90;;
7607;SDS011;3845;48.120;11.534;2022-08-01T14:40:46;2.83;;;1.80;;
7607;SDS011;3845;48.120;11.534;2022-08-01T14:43:16;2.43;;;1.80;;
7607;SDS011;3845;48.120;11.534;2022-08-01T14:45:41;5.37;;;2.40;;
7607;SDS011;3845;48.120;11.534;2022-08-01T14:48:06;2.10;;;1.90;;
7607;SDS011;3845;48.120;11.534;2022-08-01T14:50:32;2.70;;;2.30;;
7607;SDS011;3845;48.120;11.534;2022-08-01T14:52:57;2.93;;;2.53;;
7607;SDS011;3845;48.120;11.534;2022-08-01T14:55:23;2.50;;;2.30;;
7607;SDS011;3845;48.120;11.534;2022-08-01T14:57:51;2.93;;;2.40;;
7607;SDS011;3845;48.120;11.534;2022-08-01T15:00:16;6.10;;;2.03;;
7607;SDS011;3845;48.120;11.534;2022-08-01T15:02:42;3.93;;;2.20;;
7607;SDS011;3845;48.120;11.534;2022-08-01T15:05:08;2.00;;;1.80;;
7607;SDS011;3845;48.120;11.534;2022-08-01T15:07:34;3.23;;;2.10;;
7607;SDS011;3845;48.120;11.534;2022-08-01T15:10:00;3.33;;;2.03;;
7607;SDS011;3845;48.120;11.534;2022-08-01T15:12:25;2.33;;;1.90;;
7607;SDS011;3845;48.120;11.534;2022-08-01T15:14:51;2.00;;;1.80;;
7607;SDS011;3845;48.120;11.534;2022-08-01T15:17:23;2.23;;;1.80;;
7607;SDS011;3845;48.120;11.534;2022-08-01T15:19:50;4.23;;;1.80;;
7607;SDS011;3845;48.120;11.534;2022-08-01T15:22:17;2.10;;;1.63;;
7607;SDS011;3845;48.120;11.534;2022-08-01T15:24:47;3.70;;;1.80;;
7607;SDS011;3845;48.120;11.534;2022-08-01T15:27:12;2.63;;;2.30;;
7607;SDS011;3845;48.120;11.534;2022-08-01T15:29:38;3.90;;;2.00;;
7607;SDS011;3845;48.120;11.534;2022-08-01T15:32:04;2.40;;;2.00;;
7607;SDS011;3845;48.120;11.534;2022-08-01T15:34:30;2.00;;;1.80;;
7607;SDS011;3845;48.120;11.534;2022-08-01T15:36:56;4.23;;;2.20;;
7607;SDS011;3845;48.120;11.534;2022-08-01T15:39:21;7.30;;;2.40;;